sensor_id;sensor_type;location;lat;lon;timestamp;pressure;altitude;pressure_sealevel;temperature;humidity
73063;BME280;61230;46.328;19.972;2023-11-21T00:00:40;100162.53;;;5.34;100.00
73063;BME280;61230;46.328;19.972;2023-11-21T00:03:08;100168.12;;;5.30;100.00
73063;BME280;61230;46.328;19.972;2023-11-21T00:05:37;100173.09;;;5.33;100.00
73063;BME280;61230;46.328;19.972;2023-11-21T00:08:04;100174.75;;;5.34;100.00
73063;BME280;61230;46.328;19.972;2023-11-21T00:10:33;100171.44;;;5.32;100.00
73063;BME280;61230;46.328;19.972;2023-11-21T00:13:01;100173.09;;;5.33;100.00
73063;BME280;61230;46.328;19.972;2023-11-21T00:15:30;100124.03;;;5.03;100.00
73063;BME280;61230;46.328;19.972;2023-11-21T00:17:58;100180.09;;;5.32;100.00
73063;BME280;61230;46.328;19.972;2023-11-21T00:20:25;100164.78;;;5.28;100.00
73063;BME280;61230;46.328;19.972;2023-11-21T00:22:53;100177.50;;;5.32;100.00
73063;BME280;61230;46.328;19.972;2023-11-21T00:25:21;100162.91;;;5.30;100.00
73063;BME280;61230;46.328;19.972;2023-11-21T00:27:48;100172.94;;;5.23;100.00
73063;BME280;61230;46.328;19.972;2023-11-21T00:30:16;100171.56;;;5.30;100.00
73063;BME280;61230;46.328;19.972;2023-11-21T00:32:44;100174.50;;;5.26;100.00
73063;BME280;61230;46.328;19.972;2023-11-21T00:35:12;100134.09;;;4.96;100.00
73063;BME280;61230;46.328;19.972;2023-11-21T00:37:40;100187.44;;;5.27;100.00
73063;BME280;61230;46.328;19.972;2023-11-21T00:40:08;100183.50;;;5.21;100.00
73063;BME280;61230;46.328;19.972;2023-11-21T00:42:36;100181.25;;;5.28;100.00
73063;BME280;61230;46.328;19.972;2023-11-21T00:45:05;100188.97;;;5.30;100.00
73063;BME280;61230;46.328;19.972;2023-11-21T00:47:34;100142.41;;;5.01;100.00
73063;BME280;61230;46.328;19.972;2023-11-21T00:50:01;100188.31;;;5.39;100.00
73063;BME280;61230;46.328;19.972;2023-11-21T00:52:29;100187.72;;;5.46;100.00
73063;BME280;61230;46.328;19.972;2023-11-21T00:54:58;100178.72;;;5.39;100.00
73063;BME280;61230;46.328;19.972;2023-11-21T00:57:27;100177.75;;;5.40;100.00
73063;BME280;61230;46.328;19.972;2023-11-21T00:59:55;100162.44;;;5.36;100.00
73063;BME280;61230;46.328;19.972;2023-11-21T01:02:23;100181.59;;;5.47;100.00
73063;BME280;61230;46.328;19.972;2023-11-21T01:04:51;100170.56;;;5.55;100.00
73063;BME280;61230;46.328;19.972;2023-11-21T01:07:18;100167.50;;;5.61;100.00
73063;BME280;61230;46.328;19.972;2023-11-21T01:09:48;100164.75;;;5.62;100.00
73063;BME280;61230;46.328;19.972;2023-11-21T01:12:16;100165.59;;;5.63;100.00
73063;BME280;61230;46.328;19.972;2023-11-21T01:14:44;100162.75;;;5.66;100.00
73063;BME280;61230;46.328;19.972;2023-11-21T01:17:13;100160.13;;;5.66;100.00
73063;BME280;61230;46.328;19.972;2023-11-21T01:19:40;100159.91;;;5.69;100.00
73063;BME280;61230;46.328;19.972;2023-11-21T01:22:08;100154.84;;;5.78;100.00
73063;BME280;61230;46.328;19.972;2023-11-21T01:24:37;100151.88;;;5.83;100.00
73063;BME280;61230;46.328;19.972;2023-11-21T01:27:04;100145.37;;;5.89;100.00
73063;BME280;61230;46.328;19.972;2023-11-21T01:29:32;100142.75;;;5.89;100.00
73063;BME280;61230;46.328;19.972;2023-11-21T01:32:00;100139.06;;;5.91;100.00
73063;BME280;61230;46.328;19.972;2023-11-21T01:34:27;100136.84;;;5.98;100.00
73063;BME280;61230;46.328;19.972;2023-11-21T01:36:55;100131.84;;;5.95;100.00
73063;BME280;61230;46.328;19.972;2023-11-21T01:39:24;100134.81;;;6.01;100.00
73063;BME280;61230;46.328;19.972;2023-11-21T01:41:53;100134.59;;;6.04;100.00
73063;BME280;61230;46.328;19.972;2023-11-21T01:44:20;100126.84;;;6.03;100.00
73063;BME280;61230;46.328;19.972;2023-11-21T01:46:48;100125.09;;;6.03;100.00
73063;BME280;61230;46.328;19.972;2023-11-21T01:49:17;100121.78;;;6.01;100.00
73063;BME280;61230;46.328;19.972;2023-11-21T01:51:48;100074.63;;;5.80;100.00
73063;BME280;61230;46.328;19.972;2023-11-21T01:54:17;100073.06;;;5.78;100.00
73063;BME280;61230;46.328;19.972;2023-11-21T01:56:46;100105.47;;;5.75;100.00
73063;BME280;61230;46.328;19.972;2023-11-21T01:59:18;100052.19;;;5.56;100.00
73063;BME280;61230;46.328;19.972;2023-11-21T02:01:48;100090.50;;;5.77;100.00
73063;BME280;61230;46.328;19.972;2023-11-21T02:04:18;100094.91;;;5.77;100.00
73063;BME280;61230;46.328;19.972;2023-11-21T02:06:47;100092.75;;;5.82;100.00
73063;BME280;61230;46.328;19.972;2023-11-21T02:09:15;100096.59;;;5.89;100.00
73063;BME280;61230;46.328;19.972;2023-11-21T02:11:43;100097.19;;;5.93;100.00
73063;BME280;61230;46.328;19.972;2023-11-21T02:14:11;100095.75;;;5.89;100.00
73063;BME280;61230;46.328;19.972;2023-11-21T02:16:41;100089.94;;;5.96;100.00
73063;BME280;61230;46.328;19.972;2023-11-21T02:19:18;100087.84;;;5.90;100.00
73063;BME280;61230;46.328;19.972;2023-11-21T02:21:47;100082.56;;;5.79;100.00
73063;BME280;61230;46.328;19.972;2023-11-21T02:24:20;100089.00;;;5.86;100.00
73063;BME280;61230;46.328;19.972;2023-11-21T02:26:49;100047.31;;;5.73;100.00
73063;BME280;61230;46.328;19.972;2023-11-21T02:29:21;100087.59;;;6.04;100.00
73063;BME280;61230;46.328;19.972;2023-11-21T02:31:51;100040.34;;;5.85;100.00
73063;BME280;61230;46.328;19.972;2023-11-21T02:34:19;100079.72;;;6.15;100.00
73063;BME280;61230;46.328;19.972;2023-11-21T02:36:48;100070.81;;;6.18;100.00
73063;BME280;61230;46.328;19.972;2023-11-21T02:39:18;100081.63;;;6.13;100.00
73063;BME280;61230;46.328;19.972;2023-11-21T02:41:49;100071.91;;;6.15;100.00
73063;BME280;61230;46.328;19.972;2023-11-21T02:44:17;100032.72;;;5.93;100.00
73063;BME280;61230;46.328;19.972;2023-11-21T02:46:45;100074.84;;;6.22;100.00
73063;BME280;61230;46.328;19.972;2023-11-21T02:49:14;100074.59;;;6.25;100.00
73063;BME280;61230;46.328;19.972;2023-11-21T02:51:43;100078.03;;;6.25;100.00
73063;BME280;61230;46.328;19.972;2023-11-21T02:54:11;100073.66;;;6.26;100.00
73063;BME280;61230;46.328;19.972;2023-11-21T02:56:39;100034.75;;;6.01;100.00
73063;BME280;61230;46.328;19.972;2023-11-21T02:59:07;100055.97;;;6.18;100.00
73063;BME280;61230;46.328;19.972;2023-11-21T03:01:35;100077.94;;;6.27;100.00
73063;BME280;61230;46.328;19.972;2023-11-21T03:04:03;100066.75;;;6.25;100.00
73063;BME280;61230;46.328;19.972;2023-11-21T03:06:31;100065.56;;;6.29;100.00
73063;BME280;61230;46.328;19.972;2023-11-21T03:08:58;100066.06;;;6.23;100.00
73063;BME280;61230;46.328;19.972;2023-11-21T03:11:26;100063.09;;;6.05;100.00
73063;BME280;61230;46.328;19.972;2023-11-21T03:13:54;100068.00;;;5.99;100.00
73063;BME280;61230;46.328;19.972;2023-11-21T03:16:21;100061.22;;;6.07;100.00
73063;BME280;61230;46.328;19.972;2023-11-21T03:18:49;100059.09;;;6.12;100.00
73063;BME280;61230;46.328;19.972;2023-11-21T03:21:18;100065.47;;;6.19;100.00
73063;BME280;61230;46.328;19.972;2023-11-21T03:23:46;100067.25;;;6.19;100.00
73063;BME280;61230;46.328;19.972;2023-11-21T03:26:14;100072.13;;;6.23;100.00
73063;BME280;61230;46.328;19.972;2023-11-21T03:28:42;100063.91;;;6.28;100.00
73063;BME280;61230;46.328;19.972;2023-11-21T03:31:09;100054.19;;;6.30;100.00
73063;BME280;61230;46.328;19.972;2023-11-21T03:33:38;100063.41;;;6.34;100.00
73063;BME280;61230;46.328;19.972;2023-11-21T03:36:06;100073.75;;;6.35;100.00
73063;BME280;61230;46.328;19.972;2023-11-21T03:38:35;100027.00;;;6.10;100.00
73063;BME280;61230;46.328;19.972;2023-11-21T03:41:04;100052.50;;;6.29;100.00
73063;BME280;61230;46.328;19.972;2023-11-21T03:43:32;100067.56;;;6.36;100.00
73063;BME280;61230;46.328;19.972;2023-11-21T03:46:00;100018.94;;;6.13;100.00
73063;BME280;61230;46.328;19.972;2023-11-21T03:48:27;100012.31;;;6.09;100.00
73063;BME280;61230;46.328;19.972;2023-11-21T03:50:55;100062.34;;;6.36;100.00
73063;BME280;61230;46.328;19.972;2023-11-21T03:53:23;100012.31;;;6.09;100.00
73063;BME280;61230;46.328;19.972;2023-11-21T03:55:50;100054.03;;;6.31;100.00
73063;BME280;61230;46.328;19.972;2023-11-21T03:58:18;100059.28;;;6.31;100.00
73063;BME280;61230;46.328;19.972;2023-11-21T04:00:47;100059.88;;;6.35;100.00
73063;BME280;61230;46.328;19.972;2023-11-21T04:03:16;100065.19;;;6.33;100.00
73063;BME280;61230;46.328;19.972;2023-11-21T04:05:44;100024.28;;;6.12;100.00
73063;BME280;61230;46.328;19.972;2023-11-21T04:08:13;100052.47;;;6.40;100.00
73063;BME280;61230;46.328;19.972;2023-11-21T04:10:41;100054.00;;;6.43;100.00
73063;BME280;61230;46.328;19.972;2023-11-21T04:13:09;100066.25;;;6.42;100.00
73063;BME280;61230;46.328;19.972;2023-11-21T04:15:37;100071.22;;;6.45;100.00
73063;BME280;61230;46.328;19.972;2023-11-21T04:18:05;100027.94;;;6.20;100.00
73063;BME280;61230;46.328;19.972;2023-11-21T04:20:33;100075.28;;;6.49;100.00
73063;BME280;61230;46.328;19.972;2023-11-21T04:23:01;100075.97;;;6.51;100.00
73063;BME280;61230;46.328;19.972;2023-11-21T04:25:29;100070.63;;;6.53;100.00
73063;BME280;61230;46.328;19.972;2023-11-21T04:27:56;100051.44;;;6.31;100.00
73063;BME280;61230;46.328;19.972;2023-11-21T04:30:24;100033.03;;;6.22;100.00
73063;BME280;61230;46.328;19.972;2023-11-21T04:32:52;100074.28;;;6.50;100.00
73063;BME280;61230;46.328;19.972;2023-11-21T04:35:19;100078.97;;;6.47;100.00
73063;BME280;61230;46.328;19.972;2023-11-21T04:37:47;100077.28;;;6.46;100.00
73063;BME280;61230;46.328;19.972;2023-11-21T04:40:15;100070.63;;;6.42;100.00
73063;BME280;61230;46.328;19.972;2023-11-21T04:42:42;100066.25;;;6.42;100.00
73063;BME280;61230;46.328;19.972;2023-11-21T04:45:10;100021.78;;;6.21;100.00
73063;BME280;61230;46.328;19.972;2023-11-21T04:47:40;100061.13;;;6.52;100.00
73063;BME280;61230;46.328;19.972;2023-11-21T04:50:08;100057.56;;;6.53;100.00
73063;BME280;61230;46.328;19.972;2023-11-21T04:52:36;100058.25;;;6.55;100.00
73063;BME280;61230;46.328;19.972;2023-11-21T04:55:05;100052.91;;;6.56;100.00
73063;BME280;61230;46.328;19.972;2023-11-21T04:57:34;100056.47;;;6.55;100.00
73063;BME280;61230;46.328;19.972;2023-11-21T05:00:02;100055.06;;;6.51;100.00
73063;BME280;61230;46.328;19.972;2023-11-21T05:02:33;100055.66;;;6.55;100.00
73063;BME280;61230;46.328;19.972;2023-11-21T05:05:06;100013.66;;;6.35;100.00
73063;BME280;61230;46.328;19.972;2023-11-21T05:07:36;100058.91;;;6.68;100.00
73063;BME280;61230;46.328;19.972;2023-11-21T05:10:07;100044.31;;;6.65;100.00
73063;BME280;61230;46.328;19.972;2023-11-21T05:12:38;100051.03;;;6.79;100.00
73063;BME280;61230;46.328;19.972;2023-11-21T05:15:07;100051.59;;;6.82;100.00
73063;BME280;61230;46.328;19.972;2023-11-21T05:17:39;100043.38;;;6.66;100.00
73063;BME280;61230;46.328;19.972;2023-11-21T05:20:11;100035.03;;;6.61;100.00
73063;BME280;61230;46.328;19.972;2023-11-21T05:22:41;100047.41;;;6.59;100.00
73063;BME280;61230;46.328;19.972;2023-11-21T05:25:12;100054.84;;;6.43;100.00
73063;BME280;61230;46.328;19.972;2023-11-21T05:27:40;100056.63;;;6.43;100.00
73063;BME280;61230;46.328;19.972;2023-11-21T05:30:08;100054.41;;;6.38;100.00
73063;BME280;61230;46.328;19.972;2023-11-21T05:32:40;100056.91;;;6.28;100.00
73063;BME280;61230;46.328;19.972;2023-11-21T05:35:10;100018.84;;;6.04;100.00
73063;BME280;61230;46.328;19.972;2023-11-21T05:37:42;100058.56;;;6.29;100.00
73063;BME280;61230;46.328;19.972;2023-11-21T05:40:11;100065.44;;;6.30;100.00
73063;BME280;61230;46.328;19.972;2023-11-21T05:42:40;100062.81;;;6.30;100.00
73063;BME280;61230;46.328;19.972;2023-11-21T05:45:08;100067.31;;;6.40;100.00
73063;BME280;61230;46.328;19.972;2023-11-21T05:47:42;100075.84;;;6.42;100.00
73063;BME280;61230;46.328;19.972;2023-11-21T05:50:13;100077.75;;;6.51;100.00
73063;BME280;61230;46.328;19.972;2023-11-21T05:52:46;100085.09;;;6.57;100.00
73063;BME280;61230;46.328;19.972;2023-11-21T05:55:14;100093.88;;;6.56;100.00
73063;BME280;61230;46.328;19.972;2023-11-21T05:57:43;100098.63;;;6.62;100.00
73063;BME280;61230;46.328;19.972;2023-11-21T06:00:13;100065.16;;;6.45;100.00
73063;BME280;61230;46.328;19.972;2023-11-21T06:02:51;100061.75;;;6.44;100.00
73063;BME280;61230;46.328;19.972;2023-11-21T06:05:24;100112.13;;;6.78;100.00
73063;BME280;61230;46.328;19.972;2023-11-21T06:07:54;100111.75;;;6.82;100.00
73063;BME280;61230;46.328;19.972;2023-11-21T06:10:23;100118.50;;;6.85;100.00
73063;BME280;61230;46.328;19.972;2023-11-21T06:12:52;100117.56;;;6.86;100.00
73063;BME280;61230;46.328;19.972;2023-11-21T06:15:21;100128.72;;;6.88;100.00
73063;BME280;61230;46.328;19.972;2023-11-21T06:17:51;100125.41;;;6.86;100.00
73063;BME280;61230;46.328;19.972;2023-11-21T06:20:22;100127.78;;;6.89;100.00
73063;BME280;61230;46.328;19.972;2023-11-21T06:22:51;100129.41;;;6.90;100.00
73063;BME280;61230;46.328;19.972;2023-11-21T06:25:19;100127.41;;;6.93;100.00
73063;BME280;61230;46.328;19.972;2023-11-21T06:27:48;100130.59;;;6.97;100.00
73063;BME280;61230;46.328;19.972;2023-11-21T06:30:16;100123.44;;;6.99;100.00
73063;BME280;61230;46.328;19.972;2023-11-21T06:32:43;100132.59;;;7.05;100.00
73063;BME280;61230;46.328;19.972;2023-11-21T06:35:15;100127.72;;;7.00;100.00
73063;BME280;61230;46.328;19.972;2023-11-21T06:37:44;100131.63;;;7.06;100.00
73063;BME280;61230;46.328;19.972;2023-11-21T06:40:18;100139.94;;;7.11;100.00
73063;BME280;61230;46.328;19.972;2023-11-21T06:42:47;100133.31;;;6.95;100.00
73063;BME280;61230;46.328;19.972;2023-11-21T06:45:16;100137.38;;;7.00;100.00
73063;BME280;61230;46.328;19.972;2023-11-21T06:47:44;100148.38;;;7.14;100.00
73063;BME280;61230;46.328;19.972;2023-11-21T06:50:13;100156.47;;;7.11;100.00
73063;BME280;61230;46.328;19.972;2023-11-21T06:52:52;100151.53;;;6.97;100.00
73063;BME280;61230;46.328;19.972;2023-11-21T06:55:27;100151.38;;;6.99;100.00
73063;BME280;61230;46.328;19.972;2023-11-21T06:57:55;100149.81;;;7.07;100.00
73063;BME280;61230;46.328;19.972;2023-11-21T07:00:26;100146.00;;;7.11;100.00
73063;BME280;61230;46.328;19.972;2023-11-21T07:02:58;100154.19;;;7.18;100.00
73063;BME280;61230;46.328;19.972;2023-11-21T07:05:26;100149.50;;;7.21;100.00
73063;BME280;61230;46.328;19.972;2023-11-21T07:07:54;100158.63;;;7.27;100.00
73063;BME280;61230;46.328;19.972;2023-11-21T07:10:22;100159.91;;;7.32;100.00
73063;BME280;61230;46.328;19.972;2023-11-21T07:12:50;100168.09;;;7.39;100.00
73063;BME280;61230;46.328;19.972;2023-11-21T07:15:19;100167.47;;;7.46;100.00
73063;BME280;61230;46.328;19.972;2023-11-21T07:17:47;100166.97;;;7.52;100.00
73063;BME280;61230;46.328;19.972;2023-11-21T07:20:16;100163.84;;;7.59;100.00
73063;BME280;61230;46.328;19.972;2023-11-21T07:22:45;100163.22;;;7.66;100.00
73063;BME280;61230;46.328;19.972;2023-11-21T07:25:17;100170.94;;;7.68;100.00
73063;BME280;61230;46.328;19.972;2023-11-21T07:27:45;100172.34;;;7.72;100.00
73063;BME280;61230;46.328;19.972;2023-11-21T07:30:12;100145.31;;;7.50;100.00
73063;BME280;61230;46.328;19.972;2023-11-21T07:32:40;100175.69;;;7.83;100.00
73063;BME280;61230;46.328;19.972;2023-11-21T07:35:08;100171.75;;;7.89;100.00
73063;BME280;61230;46.328;19.972;2023-11-21T07:37:36;100171.09;;;7.96;100.00
73063;BME280;61230;46.328;19.972;2023-11-21T07:40:05;100156.91;;;7.99;100.00
73063;BME280;61230;46.328;19.972;2023-11-21T07:42:33;100133.28;;;7.89;100.00
73063;BME280;61230;46.328;19.972;2023-11-21T07:45:00;100174.12;;;8.22;100.00
73063;BME280;61230;46.328;19.972;2023-11-21T07:47:34;100172.34;;;8.23;100.00
73063;BME280;61230;46.328;19.972;2023-11-21T07:50:03;100172.66;;;8.29;100.00
73063;BME280;61230;46.328;19.972;2023-11-21T07:52:31;100171.16;;;8.36;100.00
73063;BME280;61230;46.328;19.972;2023-11-21T07:54:59;100166.09;;;8.44;100.00
73063;BME280;61230;46.328;19.972;2023-11-21T07:57:27;100166.50;;;8.49;100.00
73063;BME280;61230;46.328;19.972;2023-11-21T07:59:55;100165.97;;;8.55;100.00
73063;BME280;61230;46.328;19.972;2023-11-21T08:02:23;100168.75;;;8.63;100.00
73063;BME280;61230;46.328;19.972;2023-11-21T08:04:51;100133.41;;;8.48;100.00
73063;BME280;61230;46.328;19.972;2023-11-21T08:07:19;100188.50;;;8.68;100.00
73063;BME280;61230;46.328;19.972;2023-11-21T08:09:47;100192.34;;;8.63;100.00
73063;BME280;61230;46.328;19.972;2023-11-21T08:12:17;100187.81;;;8.65;100.00
73063;BME280;61230;46.328;19.972;2023-11-21T08:14:45;100186.44;;;8.61;100.00
73063;BME280;61230;46.328;19.972;2023-11-21T08:17:13;100178.66;;;8.60;100.00
73063;BME280;61230;46.328;19.972;2023-11-21T08:19:44;100163.19;;;8.47;100.00
73063;BME280;61230;46.328;19.972;2023-11-21T08:22:16;100147.44;;;8.38;100.00
73063;BME280;61230;46.328;19.972;2023-11-21T08:24:45;100181.88;;;8.63;100.00
73063;BME280;61230;46.328;19.972;2023-11-21T08:27:14;100183.37;;;8.66;100.00
73063;BME280;61230;46.328;19.972;2023-11-21T08:29:43;100180.66;;;8.68;100.00
73063;BME280;61230;46.328;19.972;2023-11-21T08:32:12;100127.44;;;8.46;100.00
73063;BME280;61230;46.328;19.972;2023-11-21T08:34:39;100172.25;;;8.74;100.00
73063;BME280;61230;46.328;19.972;2023-11-21T08:37:11;100146.28;;;8.80;100.00
73063;BME280;61230;46.328;19.972;2023-11-21T08:39:40;100153.59;;;8.86;100.00
73063;BME280;61230;46.328;19.972;2023-11-21T08:42:09;100134.69;;;8.83;100.00
73063;BME280;61230;46.328;19.972;2023-11-21T08:44:38;100122.69;;;8.71;100.00
73063;BME280;61230;46.328;19.972;2023-11-21T08:47:07;100102.91;;;8.47;100.00
73063;BME280;61230;46.328;19.972;2023-11-21T08:49:35;100091.53;;;8.28;100.00
73063;BME280;61230;46.328;19.972;2023-11-21T08:52:03;100095.22;;;8.25;100.00
73063;BME280;61230;46.328;19.972;2023-11-21T08:54:32;100065.53;;;8.15;100.00
73063;BME280;61230;46.328;19.972;2023-11-21T08:57:01;100109.34;;;8.43;100.00
73063;BME280;61230;46.328;19.972;2023-11-21T08:59:32;100103.31;;;8.52;100.00
73063;BME280;61230;46.328;19.972;2023-11-21T09:02:00;100116.16;;;8.55;100.00
73063;BME280;61230;46.328;19.972;2023-11-21T09:04:28;100120.97;;;8.60;100.00
73063;BME280;61230;46.328;19.972;2023-11-21T09:06:56;100106.38;;;8.67;100.00
73063;BME280;61230;46.328;19.972;2023-11-21T09:09:27;100100.84;;;8.60;100.00
73063;BME280;61230;46.328;19.972;2023-11-21T09:11:55;100051.69;;;8.43;100.00
73063;BME280;61230;46.328;19.972;2023-11-21T09:14:23;100045.91;;;8.49;100.00
73063;BME280;61230;46.328;19.972;2023-11-21T09:16:51;100083.47;;;8.79;100.00
73063;BME280;61230;46.328;19.972;2023-11-21T09:19:19;100079.06;;;8.79;100.00
73063;BME280;61230;46.328;19.972;2023-11-21T09:21:48;100056.41;;;8.59;100.00
73063;BME280;61230;46.328;19.972;2023-11-21T09:24:16;100079.59;;;8.83;100.00
73063;BME280;61230;46.328;19.972;2023-11-21T09:26:44;100076.84;;;8.94;100.00
73063;BME280;61230;46.328;19.972;2023-11-21T09:29:12;100069.38;;;8.99;100.00
73063;BME280;61230;46.328;19.972;2023-11-21T09:31:40;100068.69;;;8.97;100.00
73063;BME280;61230;46.328;19.972;2023-11-21T09:34:09;100061.25;;;8.92;100.00
73063;BME280;61230;46.328;19.972;2023-11-21T09:36:38;100050.34;;;8.87;100.00
73063;BME280;61230;46.328;19.972;2023-11-21T09:39:07;100041.19;;;8.91;100.00
73063;BME280;61230;46.328;19.972;2023-11-21T09:41:52;100046.87;;;8.87;100.00
73063;BME280;61230;46.328;19.972;2023-11-21T09:44:45;100035.69;;;9.04;100.00
73063;BME280;61230;46.328;19.972;2023-11-21T09:47:15;100023.78;;;9.19;100.00
73063;BME280;61230;46.328;19.972;2023-11-21T09:49:47;100021.41;;;9.62;100.00
73063;BME280;61230;46.328;19.972;2023-11-21T09:52:27;99988.97;;;10.35;100.00
73063;BME280;61230;46.328;19.972;2023-11-21T09:54:55;99996.50;;;9.76;100.00
73063;BME280;61230;46.328;19.972;2023-11-21T09:57:26;100031.59;;;9.85;100.00
73063;BME280;61230;46.328;19.972;2023-11-21T09:59:55;100022.91;;;9.28;100.00
73063;BME280;61230;46.328;19.972;2023-11-21T10:02:27;100015.25;;;9.07;100.00
73063;BME280;61230;46.328;19.972;2023-11-21T10:05:00;100025.12;;;9.33;100.00
73063;BME280;61230;46.328;19.972;2023-11-21T10:07:28;99998.50;;;9.18;100.00
73063;BME280;61230;46.328;19.972;2023-11-21T10:09:59;100045.00;;;9.45;100.00
73063;BME280;61230;46.328;19.972;2023-11-21T10:12:28;100044.75;;;9.29;100.00
73063;BME280;61230;46.328;19.972;2023-11-21T10:14:58;100037.03;;;9.17;100.00
73063;BME280;61230;46.328;19.972;2023-11-21T10:17:28;100011.62;;;9.08;100.00
73063;BME280;61230;46.328;19.972;2023-11-21T10:19:59;100053.50;;;9.10;100.00
73063;BME280;61230;46.328;19.972;2023-11-21T10:22:27;100034.81;;;9.22;100.00
73063;BME280;61230;46.328;19.972;2023-11-21T10:24:56;100037.31;;;9.24;100.00
73063;BME280;61230;46.328;19.972;2023-11-21T10:27:26;100025.19;;;9.13;100.00
73063;BME280;61230;46.328;19.972;2023-11-21T10:29:54;99991.78;;;8.77;100.00
73063;BME280;61230;46.328;19.972;2023-11-21T10:32:21;100031.94;;;8.97;100.00
73063;BME280;61230;46.328;19.972;2023-11-21T10:34:57;100029.88;;;9.00;100.00
73063;BME280;61230;46.328;19.972;2023-11-21T10:37:25;99999.53;;;8.79;100.00
73063;BME280;61230;46.328;19.972;2023-11-21T10:39:57;100020.78;;;8.95;100.00
73063;BME280;61230;46.328;19.972;2023-11-21T10:42:26;99975.25;;;8.77;100.00
73063;BME280;61230;46.328;19.972;2023-11-21T10:44:55;100023.25;;;9.06;100.00
73063;BME280;61230;46.328;19.972;2023-11-21T10:47:24;99981.56;;;8.74;100.00
73063;BME280;61230;46.328;19.972;2023-11-21T10:49:51;100018.03;;;8.96;100.00
73063;BME280;61230;46.328;19.972;2023-11-21T10:52:20;100007.53;;;8.96;100.00
73063;BME280;61230;46.328;19.972;2023-11-21T10:54:48;100012.78;;;8.96;100.00
73063;BME280;61230;46.328;19.972;2023-11-21T10:57:18;99998.16;;;8.94;100.00
73063;BME280;61230;46.328;19.972;2023-11-21T10:59:49;99982.97;;;8.88;100.00
73063;BME280;61230;46.328;19.972;2023-11-21T11:02:24;99996.19;;;8.96;100.00
73063;BME280;61230;46.328;19.972;2023-11-21T11:04:57;99945.56;;;8.66;100.00
73063;BME280;61230;46.328;19.972;2023-11-21T11:07:27;99981.97;;;8.89;100.00
73063;BME280;61230;46.328;19.972;2023-11-21T11:09:55;99978.94;;;8.93;100.00
73063;BME280;61230;46.328;19.972;2023-11-21T11:12:24;99969.56;;;8.91;100.00
73063;BME280;61230;46.328;19.972;2023-11-21T11:14:55;99953.66;;;8.92;100.00
73063;BME280;61230;46.328;19.972;2023-11-21T11:17:23;99915.47;;;8.71;100.00
73063;BME280;61230;46.328;19.972;2023-11-21T11:19:51;99954.22;;;8.96;100.00
73063;BME280;61230;46.328;19.972;2023-11-21T11:22:29;99951.16;;;9.00;100.00
73063;BME280;61230;46.328;19.972;2023-11-21T11:27:56;99953.78;;;9.00;100.00
73063;BME280;61230;46.328;19.972;2023-11-21T11:30:47;99962.19;;;9.04;100.00
73063;BME280;61230;46.328;19.972;2023-11-21T11:33:48;99958.06;;;9.01;100.00
73063;BME280;61230;46.328;19.972;2023-11-21T11:36:43;99956.13;;;9.03;100.00
73063;BME280;61230;46.328;19.972;2023-11-21T11:39:35;99955.84;;;9.06;100.00
73063;BME280;61230;46.328;19.972;2023-11-21T11:42:06;99955.84;;;9.06;100.00
73063;BME280;61230;46.328;19.972;2023-11-21T11:47:15;99946.19;;;9.07;100.00
73063;BME280;61230;46.328;19.972;2023-11-21T11:52:54;99937.63;;;9.05;100.00
73063;BME280;61230;46.328;19.972;2023-11-21T11:55:24;99942.03;;;9.04;100.00
73063;BME280;61230;46.328;19.972;2023-11-21T11:57:53;99936.62;;;9.06;100.00
73063;BME280;61230;46.328;19.972;2023-11-21T12:02:59;99936.91;;;9.03;100.00
73063;BME280;61230;46.328;19.972;2023-11-21T12:05:31;99946.84;;;9.09;100.00
73063;BME280;61230;46.328;19.972;2023-11-21T12:08:13;99929.34;;;9.00;100.00
73063;BME280;61230;46.328;19.972;2023-11-21T12:10:40;99944.94;;;9.01;100.00
73063;BME280;61230;46.328;19.972;2023-11-21T12:13:10;99937.75;;;9.03;100.00
73063;BME280;61230;46.328;19.972;2023-11-21T12:15:40;99941.38;;;9.02;100.00
73063;BME280;61230;46.328;19.972;2023-11-21T12:18:09;99927.69;;;8.99;100.00
73063;BME280;61230;46.328;19.972;2023-11-21T12:20:37;99921.91;;;8.95;100.00
73063;BME280;61230;46.328;19.972;2023-11-21T12:23:08;99926.72;;;9.00;100.00
73063;BME280;61230;46.328;19.972;2023-11-21T12:25:37;99927.53;;;9.00;100.00
73063;BME280;61230;46.328;19.972;2023-11-21T12:28:10;99926.88;;;8.98;100.00
73063;BME280;61230;46.328;19.972;2023-11-21T12:30:39;99926.72;;;9.00;100.00
73063;BME280;61230;46.328;19.972;2023-11-21T12:33:07;99932.25;;;8.97;100.00
73063;BME280;61230;46.328;19.972;2023-11-21T12:35:37;99938.19;;;8.99;100.00
73063;BME280;61230;46.328;19.972;2023-11-21T12:38:05;99937.34;;;8.98;100.00
73063;BME280;61230;46.328;19.972;2023-11-21T12:40:33;99933.91;;;8.98;100.00
73063;BME280;61230;46.328;19.972;2023-11-21T12:43:02;99935.31;;;8.92;100.00
73063;BME280;61230;46.328;19.972;2023-11-21T12:45:31;99929.94;;;8.94;100.00
73063;BME280;61230;46.328;19.972;2023-11-21T12:48:01;99933.78;;;8.99;100.00
73063;BME280;61230;46.328;19.972;2023-11-21T12:50:31;99938.59;;;9.04;100.00
73063;BME280;61230;46.328;19.972;2023-11-21T12:55:32;99901.53;;;8.80;100.00
73063;BME280;61230;46.328;19.972;2023-11-21T12:58:01;99898.34;;;8.76;100.00
73063;BME280;61230;46.328;19.972;2023-11-21T13:00:43;99896.72;;;8.65;100.00
73063;BME280;61230;46.328;19.972;2023-11-21T13:03:13;99935.47;;;8.91;100.00
73063;BME280;61230;46.328;19.972;2023-11-21T13:05:47;99898.62;;;8.63;100.00
73063;BME280;61230;46.328;19.972;2023-11-21T13:08:21;99934.34;;;8.84;100.00